sensor_id;sensor_type;location;lat;lon;timestamp;P1;durP1;ratioP1;P2;durP2;ratioP2
53618;SDS011;68717;53.040;18.488;2023-06-14T00:00:10;7.68;;;4.15;;
53618;SDS011;68717;53.040;18.488;2023-06-14T00:00:32;8.00;;;4.40;;
53618;SDS011;68717;53.040;18.488;2023-06-14T00:01:07;10.40;;;4.40;;
53618;SDS011;68717;53.040;18.488;2023-06-14T00:01:29;9.23;;;4.10;;
53618;SDS011;68717;53.040;18.488;2023-06-14T00:01:41;9.85;;;4.00;;
53618;SDS011;68717;53.040;18.488;2023-06-14T00:01:57;8.32;;;4.00;;
53618;SDS011;68717;53.040;18.488;2023-06-14T00:02:10;7.00;;;4.15;;
53618;SDS011;68717;53.040;18.488;2023-06-14T00:02:24;8.25;;;4.25;;
53618;SDS011;68717;53.040;18.488;2023-06-14T00:02:38;9.07;;;4.30;;
53618;SDS011;68717;53.040;18.488;2023-06-14T00:02:51;9.05;;;3.90;;
53618;SDS011;68717;53.040;18.488;2023-06-14T00:03:04;8.70;;;4.00;;
53618;SDS011;68717;53.040;18.488;2023-06-14T00:03:17;9.00;;;4.20;;
53618;SDS011;68717;53.040;18.488;2023-06-14T00:03:30;9.00;;;4.15;;
53618;SDS011;68717;53.040;18.488;2023-06-14T00:03:44;7.90;;;4.20;;
53618;SDS011;68717;53.040;18.488;2023-06-14T00:03:58;8.47;;;4.20;;
53618;SDS011;68717;53.040;18.488;2023-06-14T00:04:11;8.32;;;4.15;;
53618;SDS011;68717;53.040;18.488;2023-06-14T00:04:25;7.65;;;4.05;;
53618;SDS011;68717;53.040;18.488;2023-06-14T00:04:37;7.28;;;4.20;;
53618;SDS011;68717;53.040;18.488;2023-06-14T00:04:52;7.20;;;4.30;;
53618;SDS011;68717;53.040;18.488;2023-06-14T00:05:06;7.68;;;4.30;;
53618;SDS011;68717;53.040;18.488;2023-06-14T00:05:19;7.65;;;4.20;;
53618;SDS011;68717;53.040;18.488;2023-06-14T00:05:35;6.72;;;4.15;;
53618;SDS011;68717;53.040;18.488;2023-06-14T00:05:52;7.13;;;4.18;;
53618;SDS011;68717;53.040;18.488;2023-06-14T00:06:05;7.40;;;4.38;;
53618;SDS011;68717;53.040;18.488;2023-06-14T00:06:19;7.60;;;4.40;;
53618;SDS011;68717;53.040;18.488;2023-06-14T00:06:32;8.30;;;4.50;;
53618;SDS011;68717;53.040;18.488;2023-06-14T00:06:45;8.40;;;4.40;;
53618;SDS011;68717;53.040;18.488;2023-06-14T00:06:58;8.30;;;4.32;;
53618;SDS011;68717;53.040;18.488;2023-06-14T00:07:11;8.05;;;4.30;;
53618;SDS011;68717;53.040;18.488;2023-06-14T00:07:33;7.68;;;4.50;;
53618;SDS011;68717;53.040;18.488;2023-06-14T00:07:47;8.38;;;4.30;;
53618;SDS011;68717;53.040;18.488;2023-06-14T00:08:01;9.07;;;4.40;;
53618;SDS011;68717;53.040;18.488;2023-06-14T00:08:15;9.43;;;4.50;;
53618;SDS011;68717;53.040;18.488;2023-06-14T00:08:28;9.25;;;4.43;;
53618;SDS011;68717;53.040;18.488;2023-06-14T00:08:40;9.68;;;4.25;;
53618;SDS011;68717;53.040;18.488;2023-06-14T00:08:53;8.75;;;4.05;;
53618;SDS011;68717;53.040;18.488;2023-06-14T00:09:06;7.70;;;4.00;;
53618;SDS011;68717;53.040;18.488;2023-06-14T00:09:20;9.30;;;4.10;;
53618;SDS011;68717;53.040;18.488;2023-06-14T00:09:34;8.23;;;3.83;;
53618;SDS011;68717;53.040;18.488;2023-06-14T00:09:46;7.40;;;3.90;;
53618;SDS011;68717;53.040;18.488;2023-06-14T00:09:59;7.78;;;4.20;;
53618;SDS011;68717;53.040;18.488;2023-06-14T00:10:12;7.50;;;4.32;;
53618;SDS011;68717;53.040;18.488;2023-06-14T00:10:26;6.85;;;4.25;;
53618;SDS011;68717;53.040;18.488;2023-06-14T00:10:43;7.78;;;4.20;;
53618;SDS011;68717;53.040;18.488;2023-06-14T00:10:55;8.70;;;4.18;;
53618;SDS011;68717;53.040;18.488;2023-06-14T00:11:09;8.48;;;4.28;;
53618;SDS011;68717;53.040;18.488;2023-06-14T00:11:22;8.02;;;4.43;;
53618;SDS011;68717;53.040;18.488;2023-06-14T00:11:34;7.80;;;4.38;;
53618;SDS011;68717;53.040;18.488;2023-06-14T00:11:47;7.80;;;4.18;;
53618;SDS011;68717;53.040;18.488;2023-06-14T00:12:00;7.75;;;4.03;;
53618;SDS011;68717;53.040;18.488;2023-06-14T00:12:13;7.57;;;4.05;;
53618;SDS011;68717;53.040;18.488;2023-06-14T00:12:26;8.77;;;4.40;;
53618;SDS011;68717;53.040;18.488;2023-06-14T00:12:39;9.23;;;4.45;;
53618;SDS011;68717;53.040;18.488;2023-06-14T00:12:52;8.88;;;4.38;;
53618;SDS011;68717;53.040;18.488;2023-06-14T00:13:05;7.75;;;4.13;;
53618;SDS011;68717;53.040;18.488;2023-06-14T00:13:19;7.22;;;4.00;;
53618;SDS011;68717;53.040;18.488;2023-06-14T00:13:32;7.25;;;4.18;;
53618;SDS011;68717;53.040;18.488;2023-06-14T00:13:45;7.75;;;4.40;;
53618;SDS011;68717;53.040;18.488;2023-06-14T00:13:58;7.75;;;4.20;;
53618;SDS011;68717;53.040;18.488;2023-06-14T00:14:10;7.93;;;4.25;;
53618;SDS011;68717;53.040;18.488;2023-06-14T00:14:24;7.72;;;4.30;;
53618;SDS011;68717;53.040;18.488;2023-06-14T00:14:37;7.70;;;4.38;;
53618;SDS011;68717;53.040;18.488;2023-06-14T00:14:49;7.70;;;4.25;;
53618;SDS011;68717;53.040;18.488;2023-06-14T00:15:02;8.63;;;4.20;;
53618;SDS011;68717;53.040;18.488;2023-06-14T00:15:15;8.50;;;4.10;;
53618;SDS011;68717;53.040;18.488;2023-06-14T00:15:28;7.80;;;4.13;;
53618;SDS011;68717;53.040;18.488;2023-06-14T00:15:43;8.35;;;4.35;;
53618;SDS011;68717;53.040;18.488;2023-06-14T00:15:57;8.98;;;4.43;;
53618;SDS011;68717;53.040;18.488;2023-06-14T00:16:09;9.20;;;4.43;;
53618;SDS011;68717;53.040;18.488;2023-06-14T00:16:22;10.38;;;4.40;;
53618;SDS011;68717;53.040;18.488;2023-06-14T00:16:35;9.55;;;4.25;;
53618;SDS011;68717;53.040;18.488;2023-06-14T00:16:49;8.18;;;4.07;;
53618;SDS011;68717;53.040;18.488;2023-06-14T00:17:02;8.05;;;4.03;;
53618;SDS011;68717;53.040;18.488;2023-06-14T00:17:15;8.27;;;4.25;;
53618;SDS011;68717;53.040;18.488;2023-06-14T00:17:29;8.85;;;4.63;;
53618;SDS011;68717;53.040;18.488;2023-06-14T00:17:42;10.18;;;4.70;;
53618;SDS011;68717;53.040;18.488;2023-06-14T00:17:59;9.73;;;4.22;;
53618;SDS011;68717;53.040;18.488;2023-06-14T00:18:13;8.45;;;4.18;;
53618;SDS011;68717;53.040;18.488;2023-06-14T00:18:27;8.13;;;4.50;;
53618;SDS011;68717;53.040;18.488;2023-06-14T00:18:41;7.88;;;4.35;;
53618;SDS011;68717;53.040;18.488;2023-06-14T00:18:55;8.90;;;4.15;;
53618;SDS011;68717;53.040;18.488;2023-06-14T00:19:08;8.63;;;4.30;;
53618;SDS011;68717;53.040;18.488;2023-06-14T00:19:22;7.38;;;4.30;;
53618;SDS011;68717;53.040;18.488;2023-06-14T00:19:34;8.02;;;4.30;;
53618;SDS011;68717;53.040;18.488;2023-06-14T00:19:48;7.78;;;4.30;;
53618;SDS011;68717;53.040;18.488;2023-06-14T00:20:03;9.40;;;4.35;;
53618;SDS011;68717;53.040;18.488;2023-06-14T00:20:17;9.88;;;4.25;;
53618;SDS011;68717;53.040;18.488;2023-06-14T00:20:32;9.05;;;4.38;;
53618;SDS011;68717;53.040;18.488;2023-06-14T00:20:45;8.43;;;4.43;;
53618;SDS011;68717;53.040;18.488;2023-06-14T00:20:58;8.65;;;4.35;;
53618;SDS011;68717;53.040;18.488;2023-06-14T00:21:11;8.57;;;4.50;;
53618;SDS011;68717;53.040;18.488;2023-06-14T00:21:24;8.60;;;4.55;;
53618;SDS011;68717;53.040;18.488;2023-06-14T00:21:37;8.57;;;4.20;;
53618;SDS011;68717;53.040;18.488;2023-06-14T00:21:50;10.27;;;4.15;;
53618;SDS011;68717;53.040;18.488;2023-06-14T00:22:05;10.98;;;4.50;;
53618;SDS011;68717;53.040;18.488;2023-06-14T00:22:17;10.35;;;4.78;;
53618;SDS011;68717;53.040;18.488;2023-06-14T00:22:30;10.57;;;4.75;;
53618;SDS011;68717;53.040;18.488;2023-06-14T00:22:43;9.98;;;4.63;;
53618;SDS011;68717;53.040;18.488;2023-06-14T00:22:57;9.52;;;4.47;;
53618;SDS011;68717;53.040;18.488;2023-06-14T00:23:10;8.88;;;4.53;;
53618;SDS011;68717;53.040;18.488;2023-06-14T00:23:24;8.50;;;4.43;;
53618;SDS011;68717;53.040;18.488;2023-06-14T00:23:37;8.35;;;4.38;;
53618;SDS011;68717;53.040;18.488;2023-06-14T00:23:50;8.85;;;4.30;;
53618;SDS011;68717;53.040;18.488;2023-06-14T00:24:03;8.52;;;4.10;;
53618;SDS011;68717;53.040;18.488;2023-06-14T00:24:16;8.32;;;4.15;;
53618;SDS011;68717;53.040;18.488;2023-06-14T00:24:29;8.82;;;4.28;;
53618;SDS011;68717;53.040;18.488;2023-06-14T00:24:42;8.27;;;4.32;;
53618;SDS011;68717;53.040;18.488;2023-06-14T00:24:55;7.00;;;4.20;;
53618;SDS011;68717;53.040;18.488;2023-06-14T00:25:08;8.43;;;4.18;;
53618;SDS011;68717;53.040;18.488;2023-06-14T00:25:39;8.77;;;4.28;;
53618;SDS011;68717;53.040;18.488;2023-06-14T00:25:52;8.40;;;4.25;;
53618;SDS011;68717;53.040;18.488;2023-06-14T00:26:04;7.18;;;4.13;;
53618;SDS011;68717;53.040;18.488;2023-06-14T00:26:17;7.55;;;4.20;;
53618;SDS011;68717;53.040;18.488;2023-06-14T00:26:29;7.90;;;4.40;;
53618;SDS011;68717;53.040;18.488;2023-06-14T00:26:43;7.65;;;4.20;;
53618;SDS011;68717;53.040;18.488;2023-06-14T00:26:56;8.82;;;4.20;;
53618;SDS011;68717;53.040;18.488;2023-06-14T00:27:09;8.20;;;4.15;;
53618;SDS011;68717;53.040;18.488;2023-06-14T00:27:22;8.48;;;4.30;;
53618;SDS011;68717;53.040;18.488;2023-06-14T00:27:34;9.52;;;4.30;;
53618;SDS011;68717;53.040;18.488;2023-06-14T00:27:47;9.93;;;4.20;;
53618;SDS011;68717;53.040;18.488;2023-06-14T00:28:01;10.07;;;4.18;;
53618;SDS011;68717;53.040;18.488;2023-06-14T00:28:15;10.05;;;4.30;;
53618;SDS011;68717;53.040;18.488;2023-06-14T00:28:27;10.27;;;4.53;;
53618;SDS011;68717;53.040;18.488;2023-06-14T00:28:40;9.20;;;4.40;;
53618;SDS011;68717;53.040;18.488;2023-06-14T00:28:53;9.52;;;4.32;;
53618;SDS011;68717;53.040;18.488;2023-06-14T00:29:06;9.32;;;4.40;;
53618;SDS011;68717;53.040;18.488;2023-06-14T00:29:18;9.13;;;4.20;;
53618;SDS011;68717;53.040;18.488;2023-06-14T00:29:32;8.60;;;4.22;;
53618;SDS011;68717;53.040;18.488;2023-06-14T00:29:45;7.25;;;4.50;;
53618;SDS011;68717;53.040;18.488;2023-06-14T00:29:57;10.02;;;4.50;;
53618;SDS011;68717;53.040;18.488;2023-06-14T00:30:10;11.02;;;4.32;;
53618;SDS011;68717;53.040;18.488;2023-06-14T00:30:24;9.95;;;4.28;;
53618;SDS011;68717;53.040;18.488;2023-06-14T00:30:37;8.70;;;4.38;;
53618;SDS011;68717;53.040;18.488;2023-06-14T00:30:51;9.25;;;4.50;;
53618;SDS011;68717;53.040;18.488;2023-06-14T00:31:03;9.23;;;4.45;;
53618;SDS011;68717;53.040;18.488;2023-06-14T00:31:17;9.60;;;4.32;;
53618;SDS011;68717;53.040;18.488;2023-06-14T00:31:30;9.45;;;4.30;;
53618;SDS011;68717;53.040;18.488;2023-06-14T00:31:43;8.77;;;4.35;;
53618;SDS011;68717;53.040;18.488;2023-06-14T00:31:56;9.48;;;4.55;;
53618;SDS011;68717;53.040;18.488;2023-06-14T00:32:08;12.30;;;4.80;;
53618;SDS011;68717;53.040;18.488;2023-06-14T00:32:22;12.75;;;4.75;;
53618;SDS011;68717;53.040;18.488;2023-06-14T00:32:37;9.30;;;4.53;;
53618;SDS011;68717;53.040;18.488;2023-06-14T00:32:50;8.00;;;4.55;;
53618;SDS011;68717;53.040;18.488;2023-06-14T00:33:04;9.20;;;4.60;;
53618;SDS011;68717;53.040;18.488;2023-06-14T00:33:17;9.63;;;4.53;;
53618;SDS011;68717;53.040;18.488;2023-06-14T00:33:30;9.73;;;4.53;;
53618;SDS011;68717;53.040;18.488;2023-06-14T00:33:43;9.07;;;4.70;;
53618;SDS011;68717;53.040;18.488;2023-06-14T00:33:56;8.02;;;4.70;;
53618;SDS011;68717;53.040;18.488;2023-06-14T00:34:09;8.30;;;4.72;;
53618;SDS011;68717;53.040;18.488;2023-06-14T00:34:21;9.90;;;4.88;;
53618;SDS011;68717;53.040;18.488;2023-06-14T00:34:34;9.85;;;4.97;;
53618;SDS011;68717;53.040;18.488;2023-06-14T00:34:47;9.65;;;4.85;;
53618;SDS011;68717;53.040;18.488;2023-06-14T00:34:59;9.35;;;4.82;;
53618;SDS011;68717;53.040;18.488;2023-06-14T00:35:14;8.48;;;4.72;;
53618;SDS011;68717;53.040;18.488;2023-06-14T00:35:27;8.90;;;4.70;;
53618;SDS011;68717;53.040;18.488;2023-06-14T00:35:39;9.00;;;4.57;;
53618;SDS011;68717;53.040;18.488;2023-06-14T00:35:52;8.63;;;4.30;;
53618;SDS011;68717;53.040;18.488;2023-06-14T00:36:06;9.40;;;4.45;;
53618;SDS011;68717;53.040;18.488;2023-06-14T00:36:18;8.98;;;4.50;;
53618;SDS011;68717;53.040;18.488;2023-06-14T00:36:31;9.73;;;4.80;;
53618;SDS011;68717;53.040;18.488;2023-06-14T00:36:45;9.52;;;4.78;;
53618;SDS011;68717;53.040;18.488;2023-06-14T00:36:57;9.15;;;4.55;;
53618;SDS011;68717;53.040;18.488;2023-06-14T00:37:10;8.93;;;4.50;;
53618;SDS011;68717;53.040;18.488;2023-06-14T00:37:23;8.82;;;4.30;;
53618;SDS011;68717;53.040;18.488;2023-06-14T00:37:35;9.45;;;4.50;;
53618;SDS011;68717;53.040;18.488;2023-06-14T00:37:48;10.02;;;4.65;;
53618;SDS011;68717;53.040;18.488;2023-06-14T00:38:01;8.40;;;4.70;;
53618;SDS011;68717;53.040;18.488;2023-06-14T00:38:15;8.70;;;4.72;;
53618;SDS011;68717;53.040;18.488;2023-06-14T00:38:27;9.05;;;4.60;;
53618;SDS011;68717;53.040;18.488;2023-06-14T00:38:40;10.00;;;4.80;;
53618;SDS011;68717;53.040;18.488;2023-06-14T00:38:53;10.13;;;4.80;;
53618;SDS011;68717;53.040;18.488;2023-06-14T00:39:05;9.23;;;4.78;;
53618;SDS011;68717;53.040;18.488;2023-06-14T00:39:18;8.88;;;4.65;;
53618;SDS011;68717;53.040;18.488;2023-06-14T00:39:31;10.57;;;4.57;;
53618;SDS011;68717;53.040;18.488;2023-06-14T00:39:44;10.13;;;4.53;;
53618;SDS011;68717;53.040;18.488;2023-06-14T00:39:57;9.75;;;4.72;;
53618;SDS011;68717;53.040;18.488;2023-06-14T00:40:10;11.25;;;4.90;;
53618;SDS011;68717;53.040;18.488;2023-06-14T00:40:23;12.10;;;5.20;;
53618;SDS011;68717;53.040;18.488;2023-06-14T00:40:36;9.48;;;4.82;;
53618;SDS011;68717;53.040;18.488;2023-06-14T00:40:49;8.82;;;4.70;;
53618;SDS011;68717;53.040;18.488;2023-06-14T00:41:02;9.18;;;4.70;;
53618;SDS011;68717;53.040;18.488;2023-06-14T00:41:14;8.68;;;4.80;;
53618;SDS011;68717;53.040;18.488;2023-06-14T00:41:27;9.50;;;4.80;;
53618;SDS011;68717;53.040;18.488;2023-06-14T00:41:40;8.75;;;4.65;;
53618;SDS011;68717;53.040;18.488;2023-06-14T00:41:53;8.90;;;4.60;;
53618;SDS011;68717;53.040;18.488;2023-06-14T00:42:06;9.50;;;4.88;;
53618;SDS011;68717;53.040;18.488;2023-06-14T00:42:25;9.38;;;5.13;;
53618;SDS011;68717;53.040;18.488;2023-06-14T00:42:38;8.15;;;5.00;;
53618;SDS011;68717;53.040;18.488;2023-06-14T00:42:50;7.60;;;4.88;;
53618;SDS011;68717;53.040;18.488;2023-06-14T00:43:04;8.68;;;4.80;;
53618;SDS011;68717;53.040;18.488;2023-06-14T00:43:18;9.38;;;4.82;;
53618;SDS011;68717;53.040;18.488;2023-06-14T00:43:30;9.13;;;4.78;;
53618;SDS011;68717;53.040;18.488;2023-06-14T00:43:43;7.90;;;4.60;;
53618;SDS011;68717;53.040;18.488;2023-06-14T00:43:56;8.13;;;4.78;;
53618;SDS011;68717;53.040;18.488;2023-06-14T00:44:08;8.88;;;4.93;;
53618;SDS011;68717;53.040;18.488;2023-06-14T00:44:21;8.75;;;4.80;;
53618;SDS011;68717;53.040;18.488;2023-06-14T00:44:35;8.48;;;4.90;;
53618;SDS011;68717;53.040;18.488;2023-06-14T00:44:48;10.20;;;4.97;;
53618;SDS011;68717;53.040;18.488;2023-06-14T00:45:01;10.88;;;5.00;;
53618;SDS011;68717;53.040;18.488;2023-06-14T00:45:13;11.00;;;5.00;;
53618;SDS011;68717;53.040;18.488;2023-06-14T00:45:26;9.80;;;4.90;;
53618;SDS011;68717;53.040;18.488;2023-06-14T00:45:39;7.97;;;4.68;;
53618;SDS011;68717;53.040;18.488;2023-06-14T00:45:51;10.65;;;4.90;;
53618;SDS011;68717;53.040;18.488;2023-06-14T00:46:04;10.65;;;4.97;;
53618;SDS011;68717;53.040;18.488;2023-06-14T00:46:18;8.45;;;4.90;;
53618;SDS011;68717;53.040;18.488;2023-06-14T00:46:31;9.30;;;5.03;;
53618;SDS011;68717;53.040;18.488;2023-06-14T00:46:44;9.52;;;4.95;;
53618;SDS011;68717;53.040;18.488;2023-06-14T00:46:58;8.55;;;4.90;;
53618;SDS011;68717;53.040;18.488;2023-06-14T00:47:10;8.98;;;5.00;;
53618;SDS011;68717;53.040;18.488;2023-06-14T00:47:23;11.02;;;5.00;;
53618;SDS011;68717;53.040;18.488;2023-06-14T00:47:37;10.75;;;4.85;;
53618;SDS011;68717;53.040;18.488;2023-06-14T00:47:51;11.05;;;4.93;;
53618;SDS011;68717;53.040;18.488;2023-06-14T00:48:07;12.40;;;5.05;;
53618;SDS011;68717;53.040;18.488;2023-06-14T00:48:21;11.88;;;5.15;;
53618;SDS011;68717;53.040;18.488;2023-06-14T00:48:35;10.32;;;5.30;;
53618;SDS011;68717;53.040;18.488;2023-06-14T00:48:49;8.27;;;5.22;;
53618;SDS011;68717;53.040;18.488;2023-06-14T00:49:02;8.13;;;5.03;;
53618;SDS011;68717;53.040;18.488;2023-06-14T00:49:17;8.57;;;5.10;;
53618;SDS011;68717;53.040;18.488;2023-06-14T00:49:30;10.85;;;5.13;;
53618;SDS011;68717;53.040;18.488;2023-06-14T00:49:44;11.43;;;5.15;;
53618;SDS011;68717;53.040;18.488;2023-06-14T00:49:57;9.73;;;5.25;;
53618;SDS011;68717;53.040;18.488;2023-06-14T00:50:12;9.23;;;5.25;;
53618;SDS011;68717;53.040;18.488;2023-06-14T00:50:27;11.85;;;4.97;;
53618;SDS011;68717;53.040;18.488;2023-06-14T00:50:42;12.23;;;5.10;;
53618;SDS011;68717;53.040;18.488;2023-06-14T00:50:57;10.05;;;5.32;;
53618;SDS011;68717;53.040;18.488;2023-06-14T00:51:13;10.90;;;5.30;;
53618;SDS011;68717;53.040;18.488;2023-06-14T00:51:25;11.32;;;5.22;;
53618;SDS011;68717;53.040;18.488;2023-06-14T00:51:39;12.75;;;5.20;;
53618;SDS011;68717;53.040;18.488;2023-06-14T00:51:52;12.27;;;5.22;;
53618;SDS011;68717;53.040;18.488;2023-06-14T00:52:05;11.50;;;5.35;;
53618;SDS011;68717;53.040;18.488;2023-06-14T00:52:18;11.65;;;5.40;;
53618;SDS011;68717;53.040;18.488;2023-06-14T00:52:32;11.43;;;5.30;;
53618;SDS011;68717;53.040;18.488;2023-06-14T00:52:46;10.45;;;5.05;;
53618;SDS011;68717;53.040;18.488;2023-06-14T00:52:59;10.48;;;5.25;;
53618;SDS011;68717;53.040;18.488;2023-06-14T00:53:13;13.27;;;5.63;;
53618;SDS011;68717;53.040;18.488;2023-06-14T00:53:27;13.07;;;5.78;;
53618;SDS011;68717;53.040;18.488;2023-06-14T00:53:40;11.00;;;5.40;;
53618;SDS011;68717;53.040;18.488;2023-06-14T00:53:58;10.55;;;5.43;;
53618;SDS011;68717;53.040;18.488;2023-06-14T00:54:10;10.13;;;5.65;;
53618;SDS011;68717;53.040;18.488;2023-06-14T00:54:23;10.85;;;5.68;;
53618;SDS011;68717;53.040;18.488;2023-06-14T00:54:36;11.32;;;5.40;;
53618;SDS011;68717;53.040;18.488;2023-06-14T00:54:49;10.75;;;5.43;;
53618;SDS011;68717;53.040;18.488;2023-06-14T00:55:02;10.15;;;5.45;;
53618;SDS011;68717;53.040;18.488;2023-06-14T00:55:15;9.82;;;5.30;;
53618;SDS011;68717;53.040;18.488;2023-06-14T00:55:29;10.93;;;5.40;;
53618;SDS011;68717;53.040;18.488;2023-06-14T00:55:42;11.88;;;5.30;;
53618;SDS011;68717;53.040;18.488;2023-06-14T00:55:54;10.43;;;5.13;;
53618;SDS011;68717;53.040;18.488;2023-06-14T00:56:07;8.95;;;4.93;;
53618;SDS011;68717;53.040;18.488;2023-06-14T00:56:20;8.93;;;5.03;;
53618;SDS011;68717;53.040;18.488;2023-06-14T00:56:33;9.02;;;5.38;;
53618;SDS011;68717;53.040;18.488;2023-06-14T00:56:47;9.55;;;5.57;;
53618;SDS011;68717;53.040;18.488;2023-06-14T00:57:01;10.52;;;5.50;;
53618;SDS011;68717;53.040;18.488;2023-06-14T00:57:13;10.30;;;5.38;;
53618;SDS011;68717;53.040;18.488;2023-06-14T00:57:26;9.75;;;5.45;;
53618;SDS011;68717;53.040;18.488;2023-06-14T00:57:39;9.35;;;5.40;;
53618;SDS011;68717;53.040;18.488;2023-06-14T00:57:53;10.15;;;5.30;;
53618;SDS011;68717;53.040;18.488;2023-06-14T00:58:07;10.35;;;5.53;;
53618;SDS011;68717;53.040;18.488;2023-06-14T00:58:21;10.18;;;5.80;;
53618;SDS011;68717;53.040;18.488;2023-06-14T00:58:35;11.27;;;5.70;;
53618;SDS011;68717;53.040;18.488;2023-06-14T00:58:48;11.38;;;5.75;;
53618;SDS011;68717;53.040;18.488;2023-06-14T00:59:03;12.68;;;5.70;;
53618;SDS011;68717;53.040;18.488;2023-06-14T00:59:16;12.70;;;5.68;;
53618;SDS011;68717;53.040;18.488;2023-06-14T00:59:28;13.52;;;5.72;;
53618;SDS011;68717;53.040;18.488;2023-06-14T00:59:42;10.48;;;5.78;;
53618;SDS011;68717;53.040;18.488;2023-06-14T00:59:55;10.10;;;5.35;;
53618;SDS011;68717;53.040;18.488;2023-06-14T01:00:08;10.95;;;5.40;;
53618;SDS011;68717;53.040;18.488;2023-06-14T01:00:24;10.98;;;5.53;;
53618;SDS011;68717;53.040;18.488;2023-06-14T01:00:37;10.63;;;5.15;;
53618;SDS011;68717;53.040;18.488;2023-06-14T01:00:50;11.05;;;5.30;;
53618;SDS011;68717;53.040;18.488;2023-06-14T01:01:03;11.82;;;5.65;;
53618;SDS011;68717;53.040;18.488;2023-06-14T01:01:16;10.63;;;5.63;;
53618;SDS011;68717;53.040;18.488;2023-06-14T01:01:30;10.13;;;5.65;;
53618;SDS011;68717;53.040;18.488;2023-06-14T01:01:44;11.55;;;5.53;;
53618;SDS011;68717;53.040;18.488;2023-06-14T01:01:57;11.95;;;5.53;;
53618;SDS011;68717;53.040;18.488;2023-06-14T01:02:10;10.07;;;5.50;;
53618;SDS011;68717;53.040;18.488;2023-06-14T01:02:24;10.77;;;5.55;;
53618;SDS011;68717;53.040;18.488;2023-06-14T01:02:36;12.98;;;5.72;;
53618;SDS011;68717;53.040;18.488;2023-06-14T01:02:50;12.13;;;5.80;;
53618;SDS011;68717;53.040;18.488;2023-06-14T01:03:03;10.52;;;5.72;;
53618;SDS011;68717;53.040;18.488;2023-06-14T01:03:17;12.50;;;5.55;;
53618;SDS011;68717;53.040;18.488;2023-06-14T01:03:31;14.43;;;5.70;;
53618;SDS011;68717;53.040;18.488;2023-06-14T01:03:44;12.40;;;5.70;;
53618;SDS011;68717;53.040;18.488;2023-06-14T01:03:58;10.13;;;5.68;;
53618;SDS011;68717;53.040;18.488;2023-06-14T01:04:10;10.27;;;5.60;;
53618;SDS011;68717;53.040;18.488;2023-06-14T01:04:23;11.38;;;5.60;;
53618;SDS011;68717;53.040;18.488;2023-06-14T01:04:36;11.73;;;5.30;;
53618;SDS011;68717;53.040;18.488;2023-06-14T01:04:51;10.68;;;5.47;;
53618;SDS011;68717;53.040;18.488;2023-06-14T01:05:04;9.35;;;5.60;;
53618;SDS011;68717;53.040;18.488;2023-06-14T01:05:21;9.93;;;5.40;;
53618;SDS011;68717;53.040;18.488;2023-06-14T01:05:34;10.27;;;5.20;;
53618;SDS011;68717;53.040;18.488;2023-06-14T01:05:47;9.30;;;5.05;;
53618;SDS011;68717;53.040;18.488;2023-06-14T01:06:03;11.27;;;5.45;;
53618;SDS011;68717;53.040;18.488;2023-06-14T01:06:28;12.63;;;5.65;;
53618;SDS011;68717;53.040;18.488;2023-06-14T01:06:48;11.17;;;5.80;;
53618;SDS011;68717;53.040;18.488;2023-06-14T01:07:18;10.68;;;5.93;;
53618;SDS011;68717;53.040;18.488;2023-06-14T01:07:42;11.40;;;5.68;;
53618;SDS011;68717;53.040;18.488;2023-06-14T01:08:05;13.10;;;5.60;;
53618;SDS011;68717;53.040;18.488;2023-06-14T01:08:37;12.00;;;5.85;;
53618;SDS011;68717;53.040;18.488;2023-06-14T01:09:03;10.73;;;5.53;;
53618;SDS011;68717;53.040;18.488;2023-06-14T01:09:23;11.13;;;5.60;;
53618;SDS011;68717;53.040;18.488;2023-06-14T01:09:46;12.77;;;5.80;;
53618;SDS011;68717;53.040;18.488;2023-06-14T01:10:10;13.48;;;5.80;;
53618;SDS011;68717;53.040;18.488;2023-06-14T01:10:45;11.23;;;5.93;;
53618;SDS011;68717;53.040;18.488;2023-06-14T01:11:06;11.05;;;5.90;;
53618;SDS011;68717;53.040;18.488;2023-06-14T01:11:24;13.75;;;6.07;;
53618;SDS011;68717;53.040;18.488;2023-06-14T01:11:45;13.85;;;6.40;;
53618;SDS011;68717;53.040;18.488;2023-06-14T01:12:04;11.32;;;6.28;;
53618;SDS011;68717;53.040;18.488;2023-06-14T01:12:27;11.38;;;6.15;;
53618;SDS011;68717;53.040;18.488;2023-06-14T01:12:44;10.80;;;6.22;;
53618;SDS011;68717;53.040;18.488;2023-06-14T01:13:06;11.55;;;5.93;;
53618;SDS011;68717;53.040;18.488;2023-06-14T01:13:23;11.60;;;5.60;;
53618;SDS011;68717;53.040;18.488;2023-06-14T01:13:43;10.93;;;5.93;;
53618;SDS011;68717;53.040;18.488;2023-06-14T01:13:58;16.45;;;6.22;;
53618;SDS011;68717;53.040;18.488;2023-06-14T01:14:14;17.05;;;6.28;;
53618;SDS011;68717;53.040;18.488;2023-06-14T01:14:28;11.88;;;6.38;;
53618;SDS011;68717;53.040;18.488;2023-06-14T01:14:43;11.88;;;6.32;;
53618;SDS011;68717;53.040;18.488;2023-06-14T01:14:58;10.68;;;6.28;;
53618;SDS011;68717;53.040;18.488;2023-06-14T01:15:13;9.45;;;6.35;;
53618;SDS011;68717;53.040;18.488;2023-06-14T01:15:27;11.18;;;6.07;;
53618;SDS011;68717;53.040;18.488;2023-06-14T01:15:43;11.02;;;6.03;;
53618;SDS011;68717;53.040;18.488;2023-06-14T01:15:56;9.27;;;6.00;;
53618;SDS011;68717;53.040;18.488;2023-06-14T01:16:09;10.05;;;6.28;;
53618;SDS011;68717;53.040;18.488;2023-06-14T01:16:22;11.45;;;6.57;;
53618;SDS011;68717;53.040;18.488;2023-06-14T01:16:36;11.20;;;6.43;;
53618;SDS011;68717;53.040;18.488;2023-06-14T01:16:51;9.88;;;5.82;;
53618;SDS011;68717;53.040;18.488;2023-06-14T01:17:05;11.10;;;6.03;;
53618;SDS011;68717;53.040;18.488;2023-06-14T01:17:27;10.70;;;6.05;;
53618;SDS011;68717;53.040;18.488;2023-06-14T01:17:44;10.95;;;5.97;;
53618;SDS011;68717;53.040;18.488;2023-06-14T01:17:57;11.88;;;6.07;;
53618;SDS011;68717;53.040;18.488;2023-06-14T01:18:15;13.15;;;6.32;;
53618;SDS011;68717;53.040;18.488;2023-06-14T01:18:30;12.35;;;6.50;;
53618;SDS011;68717;53.040;18.488;2023-06-14T01:18:44;11.53;;;6.67;;
53618;SDS011;68717;53.040;18.488;2023-06-14T01:19:00;10.75;;;6.45;;
53618;SDS011;68717;53.040;18.488;2023-06-14T01:19:14;12.10;;;6.47;;
53618;SDS011;68717;53.040;18.488;2023-06-14T01:19:28;12.52;;;6.50;;
53618;SDS011;68717;53.040;18.488;2023-06-14T01:19:43;11.70;;;6.50;;
53618;SDS011;68717;53.040;18.488;2023-06-14T01:19:57;12.98;;;6.50;;
53618;SDS011;68717;53.040;18.488;2023-06-14T01:20:12;14.18;;;6.57;;
53618;SDS011;68717;53.040;18.488;2023-06-14T01:20:28;13.32;;;6.85;;
53618;SDS011;68717;53.040;18.488;2023-06-14T01:20:43;11.50;;;6.72;;
53618;SDS011;68717;53.040;18.488;2023-06-14T01:20:57;10.15;;;6.60;;
53618;SDS011;68717;53.040;18.488;2023-06-14T01:21:19;11.30;;;6.70;;
53618;SDS011;68717;53.040;18.488;2023-06-14T01:21:33;11.55;;;6.47;;
53618;SDS011;68717;53.040;18.488;2023-06-14T01:21:53;11.23;;;6.57;;
53618;SDS011;68717;53.040;18.488;2023-06-14T01:22:07;10.48;;;6.70;;
53618;SDS011;68717;53.040;18.488;2023-06-14T01:22:20;12.38;;;6.93;;
53618;SDS011;68717;53.040;18.488;2023-06-14T01:22:33;13.23;;;6.93;;
53618;SDS011;68717;53.040;18.488;2023-06-14T01:22:52;11.45;;;6.88;;
53618;SDS011;68717;53.040;18.488;2023-06-14T01:23:05;10.70;;;6.68;;
53618;SDS011;68717;53.040;18.488;2023-06-14T01:23:18;12.63;;;6.72;;
53618;SDS011;68717;53.040;18.488;2023-06-14T01:23:32;12.48;;;6.80;;
53618;SDS011;68717;53.040;18.488;2023-06-14T01:23:45;12.18;;;6.93;;
53618;SDS011;68717;53.040;18.488;2023-06-14T01:24:05;12.05;;;7.03;;
53618;SDS011;68717;53.040;18.488;2023-06-14T01:24:19;11.73;;;6.70;;